Time;durP1;ratioP1;P1;durP2;ratioP2;P2;SDS_P1;SDS_P2;PMS_P1;PMS_P2;Temp;Humidity;BMP_temperature;BMP_pressure;BME280_temperature;BME280_humidity;BME280_pressure;Samples;Min_cycle;Max_cycle;Signal;HPM_P1;HPM_P2
2023/08/03 00:00:58;;;;;;;;;;;;;;;;;;4999358;28;19922;-92
2023/08/03 00:03:23;;;;;;;;;;;;;;;;;;4982414;28;19929;-93
2023/08/03 00:05:49;;;;;;;;;;;;;;;;;;4982000;28;19928;-92
2023/08/03 00:08:15;;;;;;;;;;;;;;;;;;4981719;28;20290;-92
2023/08/03 00:10:41;;;;;;;;;;;;;;;;;;4981973;28;19925;-92
2023/08/03 00:13:07;;;;;;;;;;;;;;;;;;4998388;28;20020;-91
2023/08/03 00:15:33;;;;;;;;;;;;;;;;;;4981894;28;20013;-92
2023/08/03 00:17:59;;;;;;;;;;;;;;;;;;4998241;28;20332;-93
2023/08/03 00:20:25;;;;;;;;;;;;;;;;;;4998403;28;19921;-93
2023/08/03 00:22:51;;;;;;;;;;;;;;;;;;4979702;28;20373;-93
2023/08/03 00:25:17;;;;;;;;;;;;;;;;;;4995594;28;20012;-92
2023/08/03 00:27:43;;;;;;;;;;;;;;;;;;4994927;28;20017;-93
2023/08/03 00:30:08;;;;;;;;;;;;;;;;;;4995150;28;19965;-92
2023/08/03 00:32:34;;;;;;;;;;;;;;;;;;4978696;28;19929;-92
2023/08/03 00:35:00;;;;;;;;;;;;;;;;;;4994709;28;19922;-93
2023/08/03 00:37:26;;;;;;;;;;;;;;;;;;4978626;28;19944;-92
2023/08/03 00:39:52;;;;;;;;;;;;;;;;;;4994909;28;19926;-92
2023/08/03 00:42:18;;;;;;;;;;;;;;;;;;4978651;28;19929;-92
2023/08/03 00:44:44;;;;;;;;;;;;;;;;;;4978247;28;20457;-92
2023/08/03 00:47:10;;;;;;;;;;;;;;;;;;4978720;28;19925;-93
2023/08/03 00:49:36;;;;;;;;;;;;;;;;;;4981657;28;19922;-92
2023/08/03 00:52:02;;;;;;;;;;;;;;;;;;4980861;28;19929;-92
2023/08/03 00:54:28;;;;;;;;;;;;;;;;;;4994372;28;19922;-92
2023/08/03 00:56:54;;;;;;;;;;;;;;;;;;4978152;28;20254;-91
2023/08/03 00:59:20;;;;;;;;;;;;;;;;;;4978211;28;19922;-92
2023/08/03 01:01:46;;;;;;;;;;;;;;;;;;4978059;28;19928;-92
2023/08/03 01:04:12;;;;;;;;;;;;;;;;;;4978148;28;19932;-92
2023/08/03 01:06:38;;;;;;;;;;;;;;;;;;4995396;28;19930;-92
2023/08/03 01:09:04;;;;;;;;;;;;;;;;;;4977881;28;20004;-92
2023/08/03 01:11:29;;;;;;;;;;;;;;;;;;4977713;28;19936;-92
2023/08/03 01:13:55;;;;;;;;;;;;;;;;;;4977752;28;20032;-92
2023/08/03 01:16:22;;;;;;;;;;;;;;;;;;4977657;28;20329;-92
2023/08/03 01:18:48;;;;;;;;;;;;;;;;;;4994217;28;19922;-93
2023/08/03 01:21:14;;;;;;;;;;;;;;;;;;4994179;28;19928;-92
2023/08/03 01:23:40;;;;;;;;;;;;;;;;;;4995124;28;19921;-92
2023/08/03 01:26:06;;;;;;;;;;;;;;;;;;4993806;28;20362;-92
2023/08/03 01:28:32;;;;;;;;;;;;;;;;;;4993483;28;20033;-91
2023/08/03 01:30:58;;;;;;;;;;;;;;;;;;4994931;28;20029;-91
2023/08/03 01:33:24;;;;;;;;;;;;;;;;;;4977332;28;19933;-92
2023/08/03 01:35:50;;;;;;;;;;;;;;;;;;4977000;28;19922;-91
2023/08/03 01:38:16;;;;;;;;;;;;;;;;;;4994817;28;19922;-93
2023/08/03 01:40:42;;;;;;;;;;;;;;;;;;4993602;28;19930;-91
2023/08/03 01:43:08;;;;;;;;;;;;;;;;;;4993416;28;19929;-92
2023/08/03 01:45:34;;;;;;;;;;;;;;;;;;4977417;28;19922;-94
2023/08/03 01:48:00;;;;;;;;;;;;;;;;;;4977687;28;19926;-93
2023/08/03 01:50:26;;;;;;;;;;;;;;;;;;4977657;28;19937;-92
2023/08/03 01:52:51;;;;;;;;;;;;;;;;;;4977319;28;19976;-91
2023/08/03 01:55:17;;;;;;;;;;;;;;;;;;4977252;28;19961;-92
2023/08/03 01:57:43;;;;;;;;;;;;;;;;;;4976704;28;20016;-93
2023/08/03 02:00:09;;;;;;;;;;;;;;;;;;4976858;28;19921;-92
2023/08/03 02:02:35;;;;;;;;;;;;;;;;;;4976864;28;19926;-91
2023/08/03 02:05:01;;;;;;;;;;;;;;;;;;4993065;28;19940;-91
2023/08/03 02:07:27;;;;;;;;;;;;;;;;;;4976683;28;19941;-92
2023/08/03 02:09:53;;;;;;;;;;;;;;;;;;4994155;28;19921;-92
2023/08/03 02:12:19;;;;;;;;;;;;;;;;;;4976493;28;19922;-92
2023/08/03 02:14:45;;;;;;;;;;;;;;;;;;4993094;28;19983;-91
2023/08/03 02:17:11;;;;;;;;;;;;;;;;;;4976499;28;20366;-92
2023/08/03 02:19:37;;;;;;;;;;;;;;;;;;4977061;28;20037;-92
2023/08/03 02:22:03;;;;;;;;;;;;;;;;;;4976592;28;20108;-92
2023/08/03 02:24:29;;;;;;;;;;;;;;;;;;4976909;28;20239;-92
2023/08/03 02:26:55;;;;;;;;;;;;;;;;;;4992254;28;20012;-92
2023/08/03 02:29:20;;;;;;;;;;;;;;;;;;4976804;28;19926;-92
2023/08/03 02:31:46;;;;;;;;;;;;;;;;;;4993972;28;19922;-92
2023/08/03 02:34:12;;;;;;;;;;;;;;;;;;4992585;28;19968;-92
2023/08/03 02:36:38;;;;;;;;;;;;;;;;;;4992696;28;19922;-92
2023/08/03 02:39:04;;;;;;;;;;;;;;;;;;4975936;28;19921;-92
2023/08/03 02:41:33;;;;;;;;;;;;;;;;;;4976246;28;19979;-92
2023/08/03 02:43:59;;;;;;;;;;;;;;;;;;4992584;28;20377;-92
2023/08/03 02:46:25;;;;;;;;;;;;;;;;;;4991809;28;20056;-92
2023/08/03 02:48:51;;;;;;;;;;;;;;;;;;4976249;28;19925;-93
2023/08/03 02:51:17;;;;;;;;;;;;;;;;;;4976135;28;20346;-92
2023/08/03 02:53:43;;;;;;;;;;;;;;;;;;4992336;28;19922;-92
2023/08/03 02:56:09;;;;;;;;;;;;;;;;;;4991896;28;19922;-93
2023/08/03 02:58:35;;;;;;;;;;;;;;;;;;4993437;28;20386;-93
2023/08/03 03:01:02;;;;;;;;;;;;;;;;;;4975883;28;19929;-93
2023/08/03 03:03:28;;;;;;;;;;;;;;;;;;4992156;28;19922;-91
2023/08/03 03:05:54;;;;;;;;;;;;;;;;;;4975489;28;20429;-92
2023/08/03 03:08:20;;;;;;;;;;;;;;;;;;4975488;28;19972;-92
2023/08/03 03:10:46;;;;;;;;;;;;;;;;;;4976114;28;20341;-92
2023/08/03 03:13:12;;;;;;;;;;;;;;;;;;4993099;28;19929;-92
2023/08/03 03:15:38;;;;;;;;;;;;;;;;;;4991746;28;19921;-91
2023/08/03 03:18:04;;;;;;;;;;;;;;;;;;4991665;28;20258;-92
2023/08/03 03:20:30;;;;;;;;;;;;;;;;;;4993108;28;19929;-92
2023/08/03 03:22:56;;;;;;;;;;;;;;;;;;4991749;28;19928;-91
2023/08/03 03:25:22;;;;;;;;;;;;;;;;;;4975341;28;19979;-92
2023/08/03 03:27:48;;;;;;;;;;;;;;;;;;4975684;28;20020;-92
2023/08/03 03:30:16;;;;;;;;;;;;;;;;;;4993015;28;20064;-92
2023/08/03 03:32:42;;;;;;;;;;;;;;;;;;4975318;28;19929;-91
2023/08/03 03:35:08;;;;;;;;;;;;;;;;;;4991669;28;19921;-91
2023/08/03 03:37:34;;;;;;;;;;;;;;;;;;4992571;28;19980;-91
2023/08/03 03:40:00;;;;;;;;;;;;;;;;;;4991447;28;19977;-92
2023/08/03 03:42:26;;;;;;;;;;;;;;;;;;4992681;28;19976;-92
2023/08/03 03:44:52;;;;;;;;;;;;;;;;;;4991925;28;19972;-92
2023/08/03 03:47:18;;;;;;;;;;;;;;;;;;4991345;28;19925;-91
2023/08/03 03:49:43;;;;;;;;;;;;;;;;;;4991962;28;19972;-92
2023/08/03 03:52:09;;;;;;;;;;;;;;;;;;4991787;28;19933;-92
2023/08/03 03:54:35;;;;;;;;;;;;;;;;;;4993189;28;19961;-92
2023/08/03 03:57:01;;;;;;;;;;;;;;;;;;4991502;28;19932;-92
2023/08/03 03:59:27;;;;;;;;;;;;;;;;;;4977968;28;19921;-92
2023/08/03 04:01:53;;;;;;;;;;;;;;;;;;4995886;28;20027;-93
2023/08/03 04:04:19;;;;;;;;;;;;;;;;;;4995660;28;19926;-96
2023/08/03 04:06:47;;;;;;;;;;;;;;;;;;4978778;28;20063;-92
2023/08/03 04:09:13;;;;;;;;;;;;;;;;;;4979273;28;19922;-93
2023/08/03 04:11:39;;;;;;;;;;;;;;;;;;4996150;28;19933;-93
2023/08/03 04:14:04;;;;;;;;;;;;;;;;;;4979831;28;19921;-94
2023/08/03 04:16:30;;;;;;;;;;;;;;;;;;4979225;28;19922;-94
2023/08/03 04:18:56;;;;;;;;;;;;;;;;;;4995263;28;19922;-92
2023/08/03 04:21:22;;;;;;;;;;;;;;;;;;4996040;28;19933;-92
2023/08/03 04:23:48;;;;;;;;;;;;;;;;;;4978801;28;19948;-92
2023/08/03 04:26:14;;;;;;;;;;;;;;;;;;4994935;28;20016;-92
2023/08/03 04:28:42;;;;;;;;;;;;;;;;;;4994608;28;19973;-92
2023/08/03 04:31:08;;;;;;;;;;;;;;;;;;4994798;28;20301;-93
2023/08/03 04:33:34;;;;;;;;;;;;;;;;;;4978571;28;19922;-92
2023/08/03 04:36:00;;;;;;;;;;;;;;;;;;4978884;28;19922;-92
2023/08/03 04:38:26;;;;;;;;;;;;;;;;;;4980180;28;19929;-92
2023/08/03 04:40:52;;;;;;;;;;;;;;;;;;4979109;28;20305;-92
2023/08/03 04:43:18;;;;;;;;;;;;;;;;;;4980624;28;19922;-91
2023/08/03 04:45:44;;;;;;;;;;;;;;;;;;4996252;28;19921;-91
2023/08/03 04:48:10;;;;;;;;;;;;;;;;;;4978041;28;19932;-91
2023/08/03 04:50:36;;;;;;;;;;;;;;;;;;4995402;28;19928;-92
2023/08/03 04:53:01;;;;;;;;;;;;;;;;;;4978251;28;19976;-92
2023/08/03 04:55:27;;;;;;;;;;;;;;;;;;4978272;28;20018;-92
2023/08/03 04:57:53;;;;;;;;;;;;;;;;;;4994575;28;20075;-93
2023/08/03 05:00:19;;;;;;;;;;;;;;;;;;4978082;28;20445;-93
2023/08/03 05:02:45;;;;;;;;;;;;;;;;;;4978272;28;19929;-93
2023/08/03 05:05:11;;;;;;;;;;;;;;;;;;4978016;28;20335;-92
2023/08/03 05:07:37;;;;;;;;;;;;;;;;;;4994277;28;19936;-93
2023/08/03 05:10:03;;;;;;;;;;;;;;;;;;4993543;28;20366;-92
2023/08/03 05:12:29;;;;;;;;;;;;;;;;;;5004141;28;19921;-93
2023/08/03 05:14:55;;;;;;;;;;;;;;;;;;5013667;28;19921;-94
2023/08/03 05:17:21;;;;;;;;;;;;;;;;;;5013264;28;19921;-91
2023/08/03 05:19:47;;;;;;;;;;;;;;;;;;4996521;28;19980;-91
2023/08/03 05:22:13;;;;;;;;;;;;;;;;;;4995216;28;20060;-92
2023/08/03 05:24:39;;;;;;;;;;;;;;;;;;4995331;28;20399;-92
2023/08/03 05:27:04;;;;;;;;;;;;;;;;;;4993894;28;20408;-90
2023/08/03 05:29:31;;;;;;;;;;;;;;;;;;4977087;28;20017;-91
2023/08/03 05:31:57;;;;;;;;;;;;;;;;;;4994788;28;19922;-91
2023/08/03 05:34:23;;;;;;;;;;;;;;;;;;4977533;28;19922;-91
2023/08/03 05:36:49;;;;;;;;;;;;;;;;;;4977290;28;20302;-90
2023/08/03 05:39:17;;;;;;;;;;;;;;;;;;4993253;28;19922;-93
2023/08/03 05:41:42;;;;;;;;;;;;;;;;;;4977027;28;19948;-89
2023/08/03 05:44:08;;;;;;;;;;;;;;;;;;4994550;28;19921;-91
2023/08/03 05:46:34;;;;;;;;;;;;;;;;;;4976793;28;19922;-91
2023/08/03 05:49:00;;;;;;;;;;;;;;;;;;4994208;28;19929;-91
2023/08/03 05:51:26;;;;;;;;;;;;;;;;;;4977128;28;19972;-90
2023/08/03 05:53:52;;;;;;;;;;;;;;;;;;4976401;28;19972;-91
2023/08/03 05:56:18;;;;;;;;;;;;;;;;;;4992730;28;19980;-90
2023/08/03 05:58:44;;;;;;;;;;;;;;;;;;4976268;28;19929;-91
2023/08/03 06:01:10;;;;;;;;;;;;;;;;;;4992924;28;19921;-91
2023/08/03 06:03:36;;;;;;;;;;;;;;;;;;4993657;28;19928;-90
2023/08/03 06:06:02;;;;;;;;;;;;;;;;;;4976628;28;20267;-90
2023/08/03 06:08:28;;;;;;;;;;;;;;;;;;4976290;28;19933;-90
2023/08/03 06:10:54;;;;;;;;;;;;;;;;;;4994021;28;19948;-90
2023/08/03 06:13:20;;;;;;;;;;;;;;;;;;4993808;28;19929;-90
2023/08/03 06:15:45;;;;;;;;;;;;;;;;;;4976027;28;19928;-90
2023/08/03 06:18:12;;;;;;;;;;;;;;;;;;4976000;28;19929;-90
2023/08/03 06:20:37;;;;;;;;;;;;;;;;;;4975420;28;19928;-90
2023/08/03 06:23:03;;;;;;;;;;;;;;;;;;4976884;28;20012;-90
2023/08/03 06:25:29;;;;;;;;;;;;;;;;;;4992471;28;19925;-90
2023/08/03 06:27:57;;;;;;;;;;;;;;;;;;4992189;28;19926;-89
2023/08/03 06:30:23;;;;;;;;;;;;;;;;;;4992131;28;19921;-90
2023/08/03 06:32:49;;;;;;;;;;;;;;;;;;4992189;28;20636;-91
2023/08/03 06:35:15;;;;;;;;;;;;;;;;;;4997497;28;19929;-90
2023/08/03 06:37:40;;;;;;;;;;;;;;;;;;5011894;28;19921;-91
2023/08/03 06:40:06;;;;;;;;;;;;;;;;;;5011280;28;19926;-91
2023/08/03 06:42:32;;;;;;;;;;;;;;;;;;5011408;28;19925;-90
2023/08/03 06:44:58;;;;;;;;;;;;;;;;;;5011591;28;20349;-90
2023/08/03 06:47:24;;;;;;;;;;;;;;;;;;4994943;28;19929;-91
2023/08/03 06:49:50;;;;;;;;;;;;;;;;;;4995083;28;19948;-88
2023/08/03 06:52:16;;;;;;;;;;;;;;;;;;5012873;28;19921;-88
2023/08/03 06:54:42;;;;;;;;;;;;;;;;;;5012937;28;19933;-88
2023/08/03 06:57:08;;;;;;;;;;;;;;;;;;5011453;28;20025;-90
2023/08/03 06:59:33;;;;;;;;;;;;;;;;;;4995378;28;20014;-90
2023/08/03 07:01:59;;;;;;;;;;;;;;;;;;4995344;28;19960;-89
2023/08/03 07:04:25;;;;;;;;;;;;;;;;;;4995081;28;19929;-91
2023/08/03 07:06:51;;;;;;;;;;;;;;;;;;4995012;28;20290;-92
2023/08/03 07:09:17;;;;;;;;;;;;;;;;;;4994879;28;20012;-91
2023/08/03 07:11:43;;;;;;;;;;;;;;;;;;5012906;28;19929;-90
2023/08/03 07:14:09;;;;;;;;;;;;;;;;;;4994901;28;19921;-91
2023/08/03 07:16:36;;;;;;;;;;;;;;;;;;4994990;28;20289;-90
2023/08/03 07:19:02;;;;;;;;;;;;;;;;;;5011836;28;20029;-90
2023/08/03 07:21:28;;;;;;;;;;;;;;;;;;5011309;28;19921;-90
2023/08/03 07:23:54;;;;;;;;;;;;;;;;;;4994804;28;20028;-91
2023/08/03 07:26:20;;;;;;;;;;;;;;;;;;5011028;28;19925;-90
2023/08/03 07:28:46;;;;;;;;;;;;;;;;;;5012150;28;19929;-90
2023/08/03 07:31:12;;;;;;;;;;;;;;;;;;4994995;28;20368;-91
2023/08/03 07:33:38;;;;;;;;;;;;;;;;;;4998337;28;19975;-91
2023/08/03 07:36:04;;;;;;;;;;;;;;;;;;5015479;28;19922;-91
2023/08/03 07:38:30;;;;;;;;;;;;;;;;;;4998970;28;19976;-93
2023/08/03 07:40:56;;;;;;;;;;;;;;;;;;5015310;28;19925;-93
2023/08/03 07:43:22;;;;;;;;;;;;;;;;;;4999460;28;19925;-92
2023/08/03 07:45:48;;;;;;;;;;;;;;;;;;5014769;28;19933;-91
2023/08/03 07:48:14;;;;;;;;;;;;;;;;;;5014562;28;19931;-91
2023/08/03 07:50:39;;;;;;;;;;;;;;;;;;5016157;28;20021;-91
2023/08/03 07:53:05;;;;;;;;;;;;;;;;;;5016288;28;20067;-92
2023/08/03 07:55:31;;;;;;;;;;;;;;;;;;5014780;28;20361;-90
2023/08/03 07:57:57;;;;;;;;;;;;;;;;;;4997981;28;19921;-91
2023/08/03 08:00:23;;;;;;;;;;;;;;;;;;5014440;28;20306;-90
2023/08/03 08:02:49;;;;;;;;;;;;;;;;;;5014447;28;19929;-90
2023/08/03 08:05:15;;;;;;;;;;;;;;;;;;4998239;28;19921;-92
2023/08/03 08:07:41;;;;;;;;;;;;;;;;;;4998220;28;20397;-91
2023/08/03 08:10:07;;;;;;;;;;;;;;;;;;5015383;28;19921;-91
2023/08/03 08:12:33;;;;;;;;;;;;;;;;;;4998289;28;19929;-92
2023/08/03 08:14:59;;;;;;;;;;;;;;;;;;4999401;28;20016;-90
2023/08/03 08:17:25;;;;;;;;;;;;;;;;;;5014489;28;20008;-91
2023/08/03 08:19:50;;;;;;;;;;;;;;;;;;5014101;28;20290;-92
2023/08/03 08:22:17;;;;;;;;;;;;;;;;;;5014119;28;19922;-91
2023/08/03 08:24:43;;;;;;;;;;;;;;;;;;5015147;28;20369;-89
2023/08/03 08:27:09;;;;;;;;;;;;;;;;;;4997549;28;19933;-88
2023/08/03 08:29:34;;;;;;;;;;;;;;;;;;5015833;28;19921;-91
2023/08/03 08:32:00;;;;;;;;;;;;;;;;;;5001425;28;20304;-96
2023/08/03 08:34:29;;;;;;;;;;;;;;;;;;5016151;28;19922;-90
2023/08/03 08:36:57;;;;;;;;;;;;;;;;;;5013728;28;20036;-91
2023/08/03 08:39:23;;;;;;;;;;;;;;;;;;4997226;28;20008;-92
2023/08/03 08:41:49;;;;;;;;;;;;;;;;;;4997373;28;19991;-91
2023/08/03 08:44:15;;;;;;;;;;;;;;;;;;4996448;28;19968;-88
2023/08/03 08:46:41;;;;;;;;;;;;;;;;;;4997365;28;20332;-92
2023/08/03 08:49:07;;;;;;;;;;;;;;;;;;5013486;28;20297;-92
2023/08/03 08:51:33;;;;;;;;;;;;;;;;;;5015209;28;19944;-92
2023/08/03 08:53:59;;;;;;;;;;;;;;;;;;4997208;28;19928;-89
2023/08/03 08:56:25;;;;;;;;;;;;;;;;;;4996848;28;20008;-91
2023/08/03 08:58:51;;;;;;;;;;;;;;;;;;4996989;28;20012;-91
2023/08/03 09:01:17;;;;;;;;;;;;;;;;;;4997179;28;20007;-91
2023/08/03 09:03:42;;;;;;;;;;;;;;;;;;5013352;28;19948;-91
2023/08/03 09:06:08;;;;;;;;;;;;;;;;;;4996929;28;19929;-91
2023/08/03 09:08:34;;;;;;;;;;;;;;;;;;5013777;28;19964;-94
2023/08/03 09:11:01;;;;;;;;;;;;;;;;;;5015579;28;19945;-91
2023/08/03 09:13:27;;;;;;;;;;;;;;;;;;5013332;28;19922;-87
2023/08/03 09:15:53;;;;;;;;;;;;;;;;;;5012985;28;20070;-90
2023/08/03 09:18:19;;;;;;;;;;;;;;;;;;5013081;28;19922;-90
2023/08/03 09:20:44;;;;;;;;;;;;;;;;;;4996843;28;19932;-93
2023/08/03 09:23:10;;;;;;;;;;;;;;;;;;4996905;28;19922;-90
2023/08/03 09:25:36;;;;;;;;;;;;;;;;;;5012757;28;19921;-90
2023/08/03 09:28:02;;;;;;;;;;;;;;;;;;5013208;28;20373;-91
2023/08/03 09:30:28;;;;;;;;;;;;;;;;;;5013031;28;19921;-91
2023/08/03 09:32:54;;;;;;;;;;;;;;;;;;5012990;28;19975;-91
2023/08/03 09:35:20;;;;;;;;;;;;;;;;;;5013136;28;20265;-91
2023/08/03 09:37:46;;;;;;;;;;;;;;;;;;4996217;28;20407;-90
2023/08/03 09:40:12;;;;;;;;;;;;;;;;;;5012472;28;20025;-91
2023/08/03 09:42:38;;;;;;;;;;;;;;;;;;5012557;28;19944;-91
2023/08/03 09:45:05;;;;;;;;;;;;;;;;;;4996272;28;20262;-91
2023/08/03 09:47:31;;;;;;;;;;;;;;;;;;5012675;28;19926;-90
2023/08/03 09:49:57;;;;;;;;;;;;;;;;;;4995963;28;19921;-91
2023/08/03 09:52:24;;;;;;;;;;;;;;;;;;5012197;28;20035;-90
2023/08/03 09:54:55;;;;;;;;;;;;;;;;;;5012584;28;19921;-90
2023/08/03 09:57:21;;;;;;;;;;;;;;;;;;4997201;28;19922;-92
2023/08/03 09:59:47;;;;;;;;;;;;;;;;;;5012846;28;19922;-92
2023/08/03 10:02:12;;;;;;;;;;;;;;;;;;5012636;28;19932;-92
2023/08/03 10:04:38;;;;;;;;;;;;;;;;;;5012209;28;19968;-93
2023/08/03 10:07:04;;;;;;;;;;;;;;;;;;4995930;28;19926;-89
2023/08/03 10:09:30;;;;;;;;;;;;;;;;;;5011769;28;19925;-89
2023/08/03 10:11:56;;;;;;;;;;;;;;;;;;5012005;28;19921;-91
2023/08/03 10:14:22;;;;;;;;;;;;;;;;;;5011981;28;20055;-91
2023/08/03 10:16:48;;;;;;;;;;;;;;;;;;5012242;28;19964;-91
2023/08/03 10:19:14;;;;;;;;;;;;;;;;;;5013122;28;19991;-91
2023/08/03 10:21:40;;;;;;;;;;;;;;;;;;5013551;28;20011;-91
2023/08/03 10:24:06;;;;;;;;;;;;;;;;;;5012270;28;19975;-91
2023/08/03 10:26:32;;;;;;;;;;;;;;;;;;5012078;28;20409;-91
2023/08/03 10:28:57;;;;;;;;;;;;;;;;;;4995612;28;20382;-92
2023/08/03 10:31:23;;;;;;;;;;;;;;;;;;4995866;28;19961;-92
2023/08/03 10:33:49;;;;;;;;;;;;;;;;;;4995948;28;19929;-91
2023/08/03 10:36:17;;;;;;;;;;;;;;;;;;5015655;28;19921;-96
2023/08/03 10:38:45;;;;;;;;;;;;;;;;;;5015328;28;20015;-92
2023/08/03 10:41:11;;;;;;;;;;;;;;;;;;5031230;28;19932;-91
2023/08/03 10:43:37;;;;;;;;;;;;;;;;;;5015719;28;19922;-91
2023/08/03 10:46:03;;;;;;;;;;;;;;;;;;5014432;28;20000;-92
2023/08/03 10:48:30;;;;;;;;;;;;;;;;;;5025338;28;19926;-92
2023/08/03 10:50:56;;;;;;;;;;;;;;;;;;5011207;28;20010;-91
2023/08/03 10:53:22;;;;;;;;;;;;;;;;;;5010565;28;19929;-91
2023/08/03 10:55:50;;;;;;;;;;;;;;;;;;4987913;28;19922;-90
2023/08/03 10:58:16;;;;;;;;;;;;;;;;;;4977230;28;19972;-91
2023/08/03 11:00:42;;;;;;;;;;;;;;;;;;4975889;28;19926;-92
2023/08/03 11:03:08;;;;;;;;;;;;;;;;;;4991859;28;19975;-94
2023/08/03 11:05:34;;;;;;;;;;;;;;;;;;4976107;28;20006;-91
2023/08/03 11:08:00;;;;;;;;;;;;;;;;;;4974966;28;20345;-91
2023/08/03 11:10:26;;;;;;;;;;;;;;;;;;4991900;28;19941;-91
2023/08/03 11:12:54;;;;;;;;;;;;;;;;;;4975149;28;19945;-89
2023/08/03 11:15:20;;;;;;;;;;;;;;;;;;4991741;28;19922;-91
2023/08/03 11:17:46;;;;;;;;;;;;;;;;;;4992257;28;19944;-94
2023/08/03 11:20:14;;;;;;;;;;;;;;;;;;4999356;28;19933;-94
2023/08/03 11:22:40;;;;;;;;;;;;;;;;;;4994322;28;19928;-94
2023/08/03 11:25:07;;;;;;;;;;;;;;;;;;4994668;28;19921;-91
2023/08/03 11:27:33;;;;;;;;;;;;;;;;;;5011087;28;19976;-89
2023/08/03 11:29:59;;;;;;;;;;;;;;;;;;5012316;28;19933;-88
2023/08/03 11:32:25;;;;;;;;;;;;;;;;;;5012553;28;19921;-93
2023/08/03 11:43:19;;;;;;;;;;;;;;;;;;5133943;23;19950;-95
2023/08/03 11:45:49;;;;;;;;;;;;;;;;;;4938141;29;19926;-96
2023/08/03 11:48:19;;;;;;;;;;;;;;;;;;4938710;29;19927;-96
2023/08/03 11:50:45;;;;;;;;;;;;;;;;;;4937749;29;19973;-95
2023/08/03 11:53:11;;;;;;;;;;;;;;;;;;4938073;29;20013;-93
2023/08/03 11:55:37;;;;;;;;;;;;;;;;;;4953167;29;19969;-91
2023/08/03 11:58:10;;;;;;;;;;;;;;;;;;4937165;29;19930;-92
2023/08/03 12:00:36;;;;;;;;;;;;;;;;;;4937194;29;20370;-93
2023/08/03 12:03:02;;;;;;;;;;;;;;;;;;4937310;29;19922;-92
2023/08/03 12:05:28;;;;;;;;;;;;;;;;;;4953263;29;19978;-93
2023/08/03 12:07:54;;;;;;;;;;;;;;;;;;4953013;29;19930;-93
2023/08/03 12:10:20;;;;;;;;;;;;;;;;;;4936829;29;19927;-92
2023/08/03 12:12:46;;;;;;;;;;;;;;;;;;4958499;28;19911;-95
2023/08/03 12:15:12;;;;;;;;;;;;;;;;;;4959101;29;19934;-93
2023/08/03 12:17:38;;;;;;;;;;;;;;;;;;4940106;29;19978;-94
2023/08/03 12:20:04;;;;;;;;;;;;;;;;;;4941546;29;19922;-92
2023/08/03 12:22:30;;;;;;;;;;;;;;;;;;4941689;29;19922;-93
2023/08/03 12:24:56;;;;;;;;;;;;;;;;;;4942025;29;19950;-92
2023/08/03 12:27:22;;;;;;;;;;;;;;;;;;4955944;29;20049;-92
2023/08/03 12:29:48;;;;;;;;;;;;;;;;;;4940816;29;19929;-91
2023/08/03 12:32:14;;;;;;;;;;;;;;;;;;4940500;29;20369;-92
2023/08/03 12:34:40;;;;;;;;;;;;;;;;;;4940364;29;19977;-92
2023/08/03 12:37:06;;;;;;;;;;;;;;;;;;4940144;29;19938;-93
2023/08/03 12:39:32;;;;;;;;;;;;;;;;;;4956072;29;20233;-90
2023/08/03 12:41:58;;;;;;;;;;;;;;;;;;4955906;29;20404;-91
2023/08/03 12:44:26;;;;;;;;;;;;;;;;;;4940104;29;19922;-93
2023/08/03 12:46:52;;;;;;;;;;;;;;;;;;4939929;29;19922;-93
2023/08/03 12:49:18;;;;;;;;;;;;;;;;;;4955896;29;19972;-93
2023/08/03 12:51:44;;;;;;;;;;;;;;;;;;4940093;29;19923;-92
2023/08/03 12:54:10;;;;;;;;;;;;;;;;;;4939906;29;19929;-92
2023/08/03 12:56:38;;;;;;;;;;;;;;;;;;4956001;29;19922;-93
2023/08/03 12:59:06;;;;;;;;;;;;;;;;;;4940049;29;19991;-93
2023/08/03 13:01:34;;;;;;;;;;;;;;;;;;4940314;29;20378;-92
2023/08/03 13:04:00;;;;;;;;;;;;;;;;;;4939887;29;19922;-92
2023/08/03 13:06:26;;;;;;;;;;;;;;;;;;4939714;29;19929;-92
2023/08/03 13:08:52;;;;;;;;;;;;;;;;;;4939789;29;19927;-93
2023/08/03 13:11:18;;;;;;;;;;;;;;;;;;4956912;28;20346;-92
2023/08/03 13:13:44;;;;;;;;;;;;;;;;;;4940092;29;20259;-94
2023/08/03 13:16:10;;;;;;;;;;;;;;;;;;4955902;29;19922;-91
2023/08/03 13:18:36;;;;;;;;;;;;;;;;;;4939628;29;19922;-90
2023/08/03 13:21:01;;;;;;;;;;;;;;;;;;4955521;29;20024;-92
2023/08/03 13:23:27;;;;;;;;;;;;;;;;;;4955689;29;19926;-94
2023/08/03 13:25:53;;;;;;;;;;;;;;;;;;4939739;29;20009;-92
2023/08/03 13:28:19;;;;;;;;;;;;;;;;;;4939182;29;19926;-91
2023/08/03 13:30:45;;;;;;;;;;;;;;;;;;4939165;29;19929;-92
2023/08/03 13:33:11;;;;;;;;;;;;;;;;;;4955458;29;20466;-92
2023/08/03 13:35:37;;;;;;;;;;;;;;;;;;4939257;29;19977;-93
2023/08/03 13:38:04;;;;;;;;;;;;;;;;;;4955666;29;19930;-93
2023/08/03 13:40:30;;;;;;;;;;;;;;;;;;4956187;28;19922;-91
2023/08/03 13:42:56;;;;;;;;;;;;;;;;;;4954805;29;19927;-93
2023/08/03 13:45:22;;;;;;;;;;;;;;;;;;4939374;29;20010;-92
2023/08/03 13:47:48;;;;;;;;;;;;;;;;;;4955048;29;19973;-92
2023/08/03 13:50:14;;;;;;;;;;;;;;;;;;4938633;29;20272;-92
2023/08/03 13:52:40;;;;;;;;;;;;;;;;;;4938858;29;20375;-92
2023/08/03 13:55:06;;;;;;;;;;;;;;;;;;4938416;29;19967;-92
2023/08/03 13:57:32;;;;;;;;;;;;;;;;;;4938384;29;19973;-92
2023/08/03 13:59:58;;;;;;;;;;;;;;;;;;4938682;29;19930;-93
2023/08/03 14:02:24;;;;;;;;;;;;;;;;;;4954483;29;19922;-93
2023/08/03 14:04:49;;;;;;;;;;;;;;;;;;4954826;28;19923;-94
2023/08/03 14:07:19;;;;;;;;;;;;;;;;;;4954598;29;19926;-93
2023/08/03 14:18:31;;;;;;;;;;;;;;;;;;4935500;29;20299;-95
2023/08/03 14:20:56;;;;;;;;;;;;;;;;;;4935458;29;19922;-93
2023/08/03 14:23:22;;;;;;;;;;;;;;;;;;4919081;29;19923;-93
2023/08/03 14:25:48;;;;;;;;;;;;;;;;;;4920009;29;19970;-92
2023/08/03 14:28:16;;;;;;;;;;;;;;;;;;4919182;29;19931;-94
2023/08/03 14:30:42;;;;;;;;;;;;;;;;;;4935294;29;19923;-93
2023/08/03 14:33:08;;;;;;;;;;;;;;;;;;4935309;29;19923;-94
2023/08/03 14:35:36;;;;;;;;;;;;;;;;;;4950981;29;20025;-94
2023/08/03 14:38:02;;;;;;;;;;;;;;;;;;4935177;29;20399;-94
2023/08/03 14:40:28;;;;;;;;;;;;;;;;;;4935346;29;20256;-95
2023/08/03 14:42:54;;;;;;;;;;;;;;;;;;4934739;29;20394;-94
2023/08/03 14:45:20;;;;;;;;;;;;;;;;;;4934975;29;20446;-92
2023/08/03 14:47:46;;;;;;;;;;;;;;;;;;4951004;29;20002;-94
2023/08/03 14:50:12;;;;;;;;;;;;;;;;;;4951323;29;20358;-93
2023/08/03 14:52:38;;;;;;;;;;;;;;;;;;4934677;29;19929;-93
2023/08/03 14:55:06;;;;;;;;;;;;;;;;;;4935212;29;20013;-93
2023/08/03 14:57:32;;;;;;;;;;;;;;;;;;4934887;29;20409;-92
2023/08/03 14:59:58;;;;;;;;;;;;;;;;;;4935671;29;19922;-92
2023/08/03 15:02:26;;;;;;;;;;;;;;;;;;4935139;29;19926;-91
2023/08/03 15:04:52;;;;;;;;;;;;;;;;;;4934329;29;19929;-92
2023/08/03 15:07:18;;;;;;;;;;;;;;;;;;4934197;29;19927;-92
2023/08/03 15:09:44;;;;;;;;;;;;;;;;;;4934312;29;20013;-91
2023/08/03 15:12:10;;;;;;;;;;;;;;;;;;4934612;29;19962;-92
2023/08/03 15:14:35;;;;;;;;;;;;;;;;;;4934693;29;20185;-92
2023/08/03 15:17:01;;;;;;;;;;;;;;;;;;4934210;29;19966;-91
2023/08/03 15:19:27;;;;;;;;;;;;;;;;;;4934404;29;19966;-93
2023/08/03 15:21:53;;;;;;;;;;;;;;;;;;4934429;29;19930;-92
2023/08/03 15:24:19;;;;;;;;;;;;;;;;;;4934171;29;19923;-91
2023/08/03 15:26:47;;;;;;;;;;;;;;;;;;4935035;29;19933;-91
2023/08/03 15:29:13;;;;;;;;;;;;;;;;;;4934561;29;19949;-91
2023/08/03 15:31:39;;;;;;;;;;;;;;;;;;4918458;29;20383;-92
2023/08/03 15:34:05;;;;;;;;;;;;;;;;;;4918420;29;19994;-93
2023/08/03 15:36:31;;;;;;;;;;;;;;;;;;4935708;29;20375;-92
2023/08/03 15:38:57;;;;;;;;;;;;;;;;;;4934295;29;20367;-91
2023/08/03 15:41:26;;;;;;;;;;;;;;;;;;4934700;29;19923;-91
2023/08/03 15:43:52;;;;;;;;;;;;;;;;;;4918654;29;19923;-94
2023/08/03 15:46:18;;;;;;;;;;;;;;;;;;4918959;29;19969;-94
2023/08/03 15:48:44;;;;;;;;;;;;;;;;;;4934860;29;19978;-89
2023/08/03 15:51:10;;;;;;;;;;;;;;;;;;4933203;29;19923;-95
2023/08/03 15:53:36;;;;;;;;;;;;;;;;;;4920617;29;20002;-93
2023/08/03 15:56:02;;;;;;;;;;;;;;;;;;4922145;29;20003;-95
2023/08/03 15:58:28;;;;;;;;;;;;;;;;;;4923221;29;19930;-93
2023/08/03 16:00:54;;;;;;;;;;;;;;;;;;4939143;29;19926;-93
2023/08/03 16:03:20;;;;;;;;;;;;;;;;;;4922760;29;19930;-95
2023/08/03 16:05:46;;;;;;;;;;;;;;;;;;4922380;29;20401;-93
2023/08/03 16:08:12;;;;;;;;;;;;;;;;;;4937905;29;19931;-90
2023/08/03 16:10:38;;;;;;;;;;;;;;;;;;4937596;29;19923;-93
2023/08/03 16:13:04;;;;;;;;;;;;;;;;;;4922198;29;20409;-93
2023/08/03 16:15:30;;;;;;;;;;;;;;;;;;4921689;29;19927;-91
2023/08/03 16:17:56;;;;;;;;;;;;;;;;;;4937209;29;19933;-92
2023/08/03 16:20:22;;;;;;;;;;;;;;;;;;4937064;29;20275;-90
2023/08/03 16:22:48;;;;;;;;;;;;;;;;;;4936732;29;19975;-88
2023/08/03 16:25:13;;;;;;;;;;;;;;;;;;4936664;29;20429;-88
2023/08/03 16:27:39;;;;;;;;;;;;;;;;;;4937252;29;19933;-91
2023/08/03 16:30:06;;;;;;;;;;;;;;;;;;4920911;29;19962;-91
2023/08/03 16:32:32;;;;;;;;;;;;;;;;;;4938416;29;19922;-88
2023/08/03 16:34:58;;;;;;;;;;;;;;;;;;4921335;29;20291;-92
2023/08/03 16:37:24;;;;;;;;;;;;;;;;;;4921227;29;19927;-93
2023/08/03 16:39:49;;;;;;;;;;;;;;;;;;4937260;29;20017;-90
2023/08/03 16:42:16;;;;;;;;;;;;;;;;;;4921674;29;19922;-91
2023/08/03 16:44:42;;;;;;;;;;;;;;;;;;4937002;29;19923;-91
2023/08/03 16:47:08;;;;;;;;;;;;;;;;;;4920710;29;19923;-92
2023/08/03 16:49:34;;;;;;;;;;;;;;;;;;4919086;29;19938;-91
2023/08/03 16:52:00;;;;;;;;;;;;;;;;;;4927000;29;20023;-91
2023/08/03 16:54:26;;;;;;;;;;;;;;;;;;4936286;29;19932;-90